Time;durP1;ratioP1;P1;durP2;ratioP2;P2;SDS_P1;SDS_P2;PMS_P1;PMS_P2;Temp;Humidity;BMP_temperature;BMP_pressure;BME280_temperature;BME280_humidity;BME280_pressure;Samples;Min_cycle;Max_cycle;Signal;HPM_P1;HPM_P2
2022/05/26 00:01:45;;;;;;;2.03;1.40;;;14.80;96.80;;;;;;5011099;28;20663;-57
2022/05/26 00:04:11;;;;;;;1.43;1.33;;;14.70;97.00;;;;;;5011975;28;20182;-59
2022/05/26 00:06:37;;;;;;;2.53;1.60;;;14.80;96.80;;;;;;5011307;28;20461;-57
2022/05/26 00:09:03;;;;;;;2.05;1.50;;;14.60;96.50;;;;;;5010997;28;22280;-58
2022/05/26 00:11:33;;;;;;;2.13;1.40;;;14.80;96.50;;;;;;5012452;28;20257;-58
2022/05/26 00:14:07;;;;;;;1.70;1.60;;;15.00;96.40;;;;;;5012317;28;20971;-58
2022/05/26 00:16:37;;;;;;;3.40;1.73;;;14.70;96.20;;;;;;5010830;28;20191;-57
2022/05/26 00:19:03;;;;;;;2.20;1.60;;;14.70;96.40;;;;;;5009798;28;20215;-58
2022/05/26 00:21:29;;;;;;;1.65;1.27;;;14.80;96.50;;;;;;5011324;28;20191;-57
2022/05/26 00:23:56;;;;;;;3.60;1.53;;;15.00;96.70;;;;;;5012036;28;21242;-56
2022/05/26 00:26:22;;;;;;;1.60;1.42;;;15.00;96.80;;;;;;5010327;28;20218;-58
2022/05/26 00:28:48;;;;;;;2.70;2.38;;;15.10;97.40;;;;;;5010288;28;20682;-58
2022/05/26 00:31:13;;;;;;;1.67;1.57;;;14.70;97.00;;;;;;5011501;28;20205;-58
2022/05/26 00:33:39;;;;;;;1.60;1.50;;;15.00;97.20;;;;;;5011275;28;20332;-59
2022/05/26 00:36:11;;;;;;;1.50;1.40;;;14.80;97.00;;;;;;5010832;28;20186;-59
2022/05/26 00:38:38;;;;;;;3.25;1.52;;;15.00;97.20;;;;;;5008453;28;20249;-59
2022/05/26 00:41:08;;;;;;;1.48;1.38;;;14.70;97.10;;;;;;5010920;28;20252;-59
2022/05/26 00:43:34;;;;;;;2.85;1.73;;;14.90;97.30;;;;;;5010454;28;20214;-58
2022/05/26 00:46:06;;;;;;;1.65;1.55;;;14.80;97.20;;;;;;5010993;28;20345;-59
2022/05/26 00:48:43;;;;;;;1.60;1.40;;;14.90;97.20;;;;;;5006404;28;20273;-60
2022/05/26 00:51:11;;;;;;;3.63;2.17;;;14.90;97.20;;;;;;5005263;28;20175;-59
2022/05/26 00:53:45;;;;;;;1.90;1.50;;;14.70;97.00;;;;;;5006849;28;20175;-59
2022/05/26 00:56:28;;;;;;;1.73;1.63;;;14.90;97.30;;;;;;5006483;28;20194;-59
2022/05/26 00:59:04;;;;;;;1.40;1.30;;;14.90;97.30;;;;;;5010154;28;20218;-58
2022/05/26 01:01:30;;;;;;;2.90;1.58;;;14.80;97.20;;;;;;5009789;28;20193;-59
2022/05/26 01:04:00;;;;;;;1.57;1.47;;;14.60;97.50;;;;;;5010970;28;20187;-60
2022/05/26 01:06:34;;;;;;;1.70;1.40;;;14.90;97.10;;;;;;5002528;28;20762;-59
2022/05/26 01:09:03;;;;;;;1.67;1.58;;;15.10;97.10;;;;;;5010537;28;20218;-59
2022/05/26 01:11:32;;;;;;;2.28;1.40;;;15.20;96.90;;;;;;5010919;28;20631;-60
2022/05/26 01:14:07;;;;;;;1.30;1.20;;;15.00;96.10;;;;;;5009371;28;20181;-59
2022/05/26 01:16:47;;;;;;;1.77;1.20;;;15.10;95.80;;;;;;5006413;28;20182;-61
2022/05/26 01:19:22;;;;;;;2.33;1.10;;;15.30;95.70;;;;;;5007830;28;20210;-58
2022/05/26 01:22:06;;;;;;;2.67;1.50;;;15.20;95.60;;;;;;5011039;28;20194;-59
2022/05/26 01:25:07;;;;;;;1.20;1.10;;;15.10;95.70;;;;;;5000489;28;20206;-57
2022/05/26 01:28:16;;;;;;;1.90;1.15;;;15.40;95.80;;;;;;5006539;28;20329;-58
2022/05/26 01:30:55;;;;;;;1.10;1.00;;;15.20;96.10;;;;;;5008065;28;20698;-58
2022/05/26 01:33:27;;;;;;;1.95;1.00;;;15.00;95.90;;;;;;5009358;28;20648;-58
2022/05/26 01:35:55;;;;;;;1.10;1.00;;;15.30;95.70;;;;;;5008518;28;20305;-57
2022/05/26 01:38:29;;;;;;;1.15;1.05;;;15.20;95.80;;;;;;5009093;28;20711;-58
2022/05/26 01:41:01;;;;;;;1.40;1.30;;;15.20;95.80;;;;;;5010413;28;20671;-58
2022/05/26 01:43:27;;;;;;;4.05;1.25;;;15.00;95.80;;;;;;5010155;28;20201;-59
2022/05/26 01:46:22;;;;;;;2.30;1.37;;;15.20;95.90;;;;;;5009369;28;20214;-59
2022/05/26 01:48:56;;;;;;;3.10;1.40;;;15.30;96.20;;;;;;5013532;28;20215;-57
2022/05/26 01:51:33;;;;;;;2.53;1.60;;;15.10;96.20;;;;;;5010041;28;20193;-58
2022/05/26 01:54:04;;;;;;;1.40;1.15;;;14.90;96.20;;;;;;5006194;28;21012;-57
2022/05/26 01:56:40;;;;;;;2.15;1.15;;;14.90;96.50;;;;;;5001289;28;20206;-57
2022/05/26 01:59:42;;;;;;;1.58;1.40;;;14.90;96.70;;;;;;5007884;28;20225;-58
2022/05/26 02:02:18;;;;;;;2.05;1.10;;;14.80;97.60;;;;;;5009780;28;20233;-57
2022/05/26 02:04:49;;;;;;;2.00;1.40;;;14.80;98.20;;;;;;5016448;28;20656;-57
2022/05/26 02:07:24;;;;;;;2.22;1.23;;;14.70;97.70;;;;;;5008957;28;20214;-58
2022/05/26 02:09:52;;;;;;;1.63;1.40;;;14.60;97.70;;;;;;5009023;28;20302;-57
2022/05/26 02:12:31;;;;;;;2.00;1.40;;;14.70;97.60;;;;;;5010265;28;20535;-58
2022/05/26 02:15:20;;;;;;;1.40;1.20;;;14.80;97.90;;;;;;5009233;28;20680;-57
2022/05/26 02:17:55;;;;;;;2.65;1.10;;;14.70;97.90;;;;;;5006841;28;20234;-58
2022/05/26 02:20:28;;;;;;;1.50;1.40;;;14.60;98.00;;;;;;5009541;28;20273;-58
2022/05/26 02:23:15;;;;;;;1.95;1.30;;;14.40;98.40;;;;;;5009707;28;20241;-59
2022/05/26 02:25:41;;;;;;;2.17;1.20;;;14.40;98.50;;;;;;5009834;28;20253;-60
2022/05/26 02:28:06;;;;;;;1.63;1.17;;;14.50;98.60;;;;;;5007744;28;20199;-59
2022/05/26 02:30:38;;;;;;;1.73;1.33;;;14.30;98.60;;;;;;5009754;28;20436;-59
2022/05/26 02:33:09;;;;;;;2.97;1.50;;;14.30;98.80;;;;;;5010511;28;20199;-58
2022/05/26 02:35:41;;;;;;;1.92;1.50;;;14.30;98.70;;;;;;5009284;28;20262;-59
2022/05/26 02:38:11;;;;;;;1.55;1.45;;;14.30;98.90;;;;;;5006155;28;20202;-60
2022/05/26 02:40:37;;;;;;;1.40;1.30;;;14.50;99.00;;;;;;5008828;28;20191;-60
2022/05/26 02:43:28;;;;;;;1.40;1.10;;;14.20;98.90;;;;;;5010210;28;20190;-60
2022/05/26 02:46:15;;;;;;;1.38;1.15;;;14.50;99.20;;;;;;5009222;28;20277;-59
2022/05/26 02:49:05;;;;;;;1.50;1.40;;;14.40;99.20;;;;;;5001763;28;20288;-58
2022/05/26 02:51:42;;;;;;;1.25;1.10;;;14.00;99.10;;;;;;5013783;28;20190;-58
2022/05/26 02:54:17;;;;;;;1.50;1.13;;;14.10;99.40;;;;;;5013034;28;20274;-58
2022/05/26 02:57:12;;;;;;;2.47;1.23;;;14.10;99.50;;;;;;5010087;28;20655;-59
2022/05/26 02:59:47;;;;;;;1.75;1.40;;;14.00;99.90;;;;;;5011678;28;20249;-58
2022/05/26 03:02:24;;;;;;;3.45;1.48;;;13.90;99.90;;;;;;5012823;28;20183;-58
2022/05/26 03:05:05;;;;;;;1.90;1.42;;;13.80;99.90;;;;;;5001066;28;20954;-59
2022/05/26 03:07:33;;;;;;;2.35;1.10;;;13.90;99.90;;;;;;5011128;28;20225;-59
2022/05/26 03:10:03;;;;;;;2.88;1.30;;;13.90;99.90;;;;;;5005453;28;20187;-58
2022/05/26 03:12:35;;;;;;;1.42;1.33;;;14.00;99.90;;;;;;5013771;28;20210;-58
2022/05/26 03:15:02;;;;;;;1.27;1.17;;;13.70;99.90;;;;;;5012479;28;20187;-58
2022/05/26 03:17:28;;;;;;;1.90;1.30;;;13.70;99.90;;;;;;5011344;28;20183;-58
2022/05/26 03:19:53;;;;;;;1.57;1.47;;;13.70;99.90;;;;;;5011664;28;20550;-58
2022/05/26 03:22:19;;;;;;;2.40;1.37;;;14.20;99.90;;;;;;5012916;28;20203;-57
2022/05/26 03:24:45;;;;;;;1.73;1.20;;;13.90;99.90;;;;;;5012446;28;20248;-57
2022/05/26 03:27:12;;;;;;;1.90;1.40;;;13.80;99.90;;;;;;5011499;28;20218;-57
2022/05/26 03:29:38;;;;;;;1.85;1.48;;;13.60;99.90;;;;;;5011930;28;20290;-57
2022/05/26 03:32:05;;;;;;;2.38;1.38;;;13.90;99.90;;;;;;5012522;28;20249;-58
2022/05/26 03:42:57;;;;;;;1.42;1.27;;;13.90;99.90;;;;;;5010989;28;20203;-59
2022/05/26 03:45:24;;;;;;;1.30;1.20;;;13.60;99.90;;;;;;5012339;28;20286;-58
2022/05/26 03:47:50;;;;;;;1.50;1.30;;;13.90;99.90;;;;;;5010691;28;20242;-57
2022/05/26 03:50:16;;;;;;;3.03;1.30;;;13.70;99.90;;;;;;5012172;28;20671;-57
2022/05/26 03:52:42;;;;;;;2.28;1.30;;;14.00;99.90;;;;;;5012805;28;20205;-57
2022/05/26 03:55:08;;;;;;;2.10;1.17;;;13.70;99.90;;;;;;5012636;28;20175;-57
2022/05/26 03:57:34;;;;;;;1.67;1.13;;;13.50;99.90;;;;;;5009274;28;20667;-56
2022/05/26 04:00:00;;;;;;;1.37;1.10;;;13.80;99.90;;;;;;5009740;28;20214;-57
2022/05/26 04:02:26;;;;;;;1.10;1.00;;;13.60;99.90;;;;;;5005746;28;20679;-57
2022/05/26 04:04:52;;;;;;;1.50;1.33;;;13.70;99.90;;;;;;5012627;28;20191;-58
2022/05/26 04:07:18;;;;;;;3.23;1.17;;;13.70;99.90;;;;;;5011267;28;20213;-58
2022/05/26 04:09:43;;;;;;;2.07;1.20;;;13.70;99.90;;;;;;5011263;28;20285;-57
2022/05/26 04:12:10;;;;;;;1.37;1.00;;;13.80;99.90;;;;;;5011614;28;20281;-58
2022/05/26 04:14:37;;;;;;;1.40;1.30;;;13.50;99.90;;;;;;5010139;28;20186;-56
2022/05/26 04:17:03;;;;;;;1.00;0.90;;;13.70;99.90;;;;;;5010517;28;20183;-57
2022/05/26 04:19:29;;;;;;;1.40;1.30;;;13.70;99.90;;;;;;5005531;28;20350;-58
2022/05/26 04:24:39;;;;;;;1.20;1.10;;;13.80;99.90;;;;;;5011478;28;20229;-58
2022/05/26 04:27:05;;;;;;;1.70;1.60;;;13.90;99.90;;;;;;5010303;28;20735;-57
2022/05/26 04:29:32;;;;;;;1.10;1.00;;;14.00;99.90;;;;;;5010199;28;20214;-58
2022/05/26 04:31:58;;;;;;;2.28;1.33;;;14.00;99.90;;;;;;5010953;28;20217;-58
2022/05/26 04:34:24;;;;;;;1.52;1.20;;;14.10;99.90;;;;;;5006388;28;20763;-59
2022/05/26 04:36:50;;;;;;;1.73;1.10;;;14.10;99.90;;;;;;5011096;28;20274;-57
2022/05/26 04:39:16;;;;;;;1.33;1.13;;;14.20;99.90;;;;;;5010937;28;20466;-58
2022/05/26 04:41:43;;;;;;;1.90;1.27;;;14.20;99.90;;;;;;5008431;28;20337;-59
2022/05/26 04:44:14;;;;;;;1.98;1.00;;;14.30;99.90;;;;;;5011748;28;20191;-59
2022/05/26 04:46:40;;;;;;;1.10;1.00;;;14.20;99.90;;;;;;5009561;28;20257;-57
2022/05/26 04:49:06;;;;;;;1.77;1.17;;;14.40;99.90;;;;;;5008484;28;20585;-57
2022/05/26 04:51:35;;;;;;;1.10;1.00;;;14.40;99.80;;;;;;5008215;28;20183;-57
2022/05/26 04:54:05;;;;;;;1.10;1.00;;;14.50;99.60;;;;;;5010743;28;20186;-60
2022/05/26 04:56:31;;;;;;;1.20;1.10;;;14.60;99.40;;;;;;5009901;28;20328;-57
2022/05/26 04:58:56;;;;;;;1.20;1.10;;;14.90;99.30;;;;;;5004760;28;20301;-57
2022/05/26 05:01:22;;;;;;;1.47;1.37;;;14.80;99.60;;;;;;5008678;28;20191;-58
2022/05/26 05:03:49;;;;;;;1.77;1.40;;;14.70;99.70;;;;;;5010806;28;20187;-58
2022/05/26 05:06:16;;;;;;;1.20;1.10;;;15.00;99.40;;;;;;5005154;28;21029;-59
2022/05/26 05:08:42;;;;;;;1.20;1.00;;;14.90;99.00;;;;;;5007091;28;20230;-58
2022/05/26 05:11:10;;;;;;;1.35;1.15;;;15.00;98.80;;;;;;5010929;28;20194;-57
2022/05/26 05:13:35;;;;;;;1.15;1.00;;;15.20;98.60;;;;;;5009951;28;20225;-56
2022/05/26 05:16:04;;;;;;;2.03;1.13;;;15.40;98.50;;;;;;5009087;28;20291;-56
2022/05/26 05:18:30;;;;;;;1.10;1.00;;;15.50;98.30;;;;;;5008582;28;20426;-57
2022/05/26 05:21:01;;;;;;;1.70;1.30;;;15.70;98.30;;;;;;5010401;28;20273;-57
2022/05/26 05:23:27;;;;;;;1.20;1.10;;;15.60;97.70;;;;;;5010104;28;20449;-58
2022/05/26 05:25:55;;;;;;;2.55;1.10;;;15.70;96.80;;;;;;5010761;28;20213;-57
2022/05/26 05:28:21;;;;;;;1.60;0.90;;;15.90;96.10;;;;;;5007193;28;20668;-57
2022/05/26 05:31:17;;;;;;;1.70;0.90;;;16.10;95.80;;;;;;5009772;28;20273;-57
2022/05/26 05:33:51;;;;;;;1.10;0.88;;;16.20;95.10;;;;;;5011785;28;20206;-57
2022/05/26 05:36:24;;;;;;;1.52;1.00;;;16.30;94.60;;;;;;5006139;28;20189;-57
2022/05/26 05:38:50;;;;;;;1.05;0.85;;;16.20;94.60;;;;;;5006120;28;20203;-57
2022/05/26 05:41:16;;;;;;;0.83;0.83;;;16.40;94.50;;;;;;5010443;28;20679;-56
2022/05/26 05:43:42;;;;;;;1.17;0.93;;;16.60;94.40;;;;;;5006831;28;20861;-58
2022/05/26 05:46:08;;;;;;;1.80;1.00;;;16.60;94.20;;;;;;5007676;28;20464;-57
2022/05/26 05:48:38;;;;;;;1.13;0.90;;;16.60;93.80;;;;;;5006293;28;20203;-57
2022/05/26 05:51:04;;;;;;;1.92;1.00;;;16.70;93.30;;;;;;5025285;28;20442;-57
2022/05/26 05:53:30;;;;;;;1.07;0.97;;;16.90;93.30;;;;;;5007800;28;20183;-56
2022/05/26 05:55:55;;;;;;;1.00;0.90;;;16.90;92.90;;;;;;5008181;28;20825;-58
2022/05/26 05:58:21;;;;;;;1.20;1.10;;;16.90;93.20;;;;;;5006698;28;20535;-57
2022/05/26 06:00:47;;;;;;;1.90;0.80;;;17.00;92.90;;;;;;5005509;28;20534;-57
2022/05/26 06:03:13;;;;;;;2.37;1.10;;;17.20;92.30;;;;;;5006939;28;20529;-57
2022/05/26 06:05:38;;;;;;;1.10;0.97;;;17.60;92.00;;;;;;5007352;28;20217;-57
2022/05/26 06:08:05;;;;;;;1.67;0.80;;;17.70;91.30;;;;;;5005283;28;20563;-56
2022/05/26 06:10:31;;;;;;;2.05;0.80;;;18.00;90.90;;;;;;5005955;28;20636;-57
2022/05/26 06:12:58;;;;;;;3.17;1.17;;;18.20;90.50;;;;;;5006632;28;20222;-57
2022/05/26 06:15:24;;;;;;;1.10;1.00;;;18.20;90.00;;;;;;5003348;28;20202;-57
2022/05/26 06:17:51;;;;;;;2.35;1.00;;;18.20;89.90;;;;;;5008185;28;20293;-56
2022/05/26 06:20:16;;;;;;;2.35;1.20;;;18.20;90.00;;;;;;5009469;28;20267;-59
2022/05/26 06:22:44;;;;;;;2.90;1.07;;;18.20;90.00;;;;;;5008440;28;20262;-58
2022/05/26 06:25:10;;;;;;;2.45;1.05;;;18.20;90.00;;;;;;5011744;28;21029;-57
2022/05/26 06:30:23;;;;;;;2.00;1.00;;;18.30;89.20;;;;;;5012347;28;20190;-57
2022/05/26 06:38:20;;;;;;;4.82;1.20;;;18.30;89.60;;;;;;5002682;28;20294;-57
2022/05/26 06:40:47;;;;;;;2.40;1.60;;;18.40;89.20;;;;;;5007965;28;20183;-56
2022/05/26 06:43:14;;;;;;;2.03;1.75;;;18.50;88.90;;;;;;5010437;28;20190;-57
2022/05/26 06:45:40;;;;;;;0.90;0.90;;;18.60;88.50;;;;;;5012863;28;20600;-58
2022/05/26 06:48:07;;;;;;;1.33;0.90;;;18.70;88.80;;;;;;5012651;28;20221;-57
2022/05/26 06:50:33;;;;;;;1.00;0.90;;;18.70;88.70;;;;;;5013078;28;20274;-55
2022/05/26 06:52:58;;;;;;;2.08;1.00;;;18.70;88.70;;;;;;5013857;28;20214;-55
2022/05/26 06:55:24;;;;;;;1.20;1.00;;;18.60;88.20;;;;;;5012892;28;20692;-55
2022/05/26 06:57:50;;;;;;;1.00;0.90;;;18.70;89.00;;;;;;5010453;28;20214;-55
2022/05/26 07:00:18;;;;;;;1.63;0.90;;;18.70;88.20;;;;;;5011824;28;20897;-55
2022/05/26 07:02:45;;;;;;;6.72;1.15;;;18.60;89.50;;;;;;5004916;28;20191;-55
2022/05/26 07:05:11;;;;;;;1.52;1.00;;;18.80;89.00;;;;;;5013471;28;20195;-55
2022/05/26 07:07:41;;;;;;;1.00;0.90;;;18.90;88.40;;;;;;5011982;28;20217;-57
2022/05/26 07:10:08;;;;;;;1.30;1.20;;;19.00;88.20;;;;;;5012405;28;20633;-56
2022/05/26 07:12:34;;;;;;;1.10;1.00;;;19.20;87.90;;;;;;5013069;28;20191;-57
2022/05/26 07:15:00;;;;;;;0.95;0.90;;;19.10;87.00;;;;;;5006218;28;20186;-57
2022/05/26 07:17:26;;;;;;;3.80;1.50;;;19.50;86.90;;;;;;5012589;28;20198;-56
2022/05/26 07:19:52;;;;;;;1.87;0.90;;;19.50;85.20;;;;;;5010929;28;20573;-56
2022/05/26 07:22:18;;;;;;;2.40;1.10;;;19.40;84.40;;;;;;5008645;28;20187;-56
2022/05/26 07:24:45;;;;;;;1.27;1.10;;;19.60;84.20;;;;;;5011958;28;20943;-56
2022/05/26 07:27:10;;;;;;;1.00;0.90;;;19.70;84.10;;;;;;5010968;28;20481;-56
2022/05/26 07:29:36;;;;;;;1.60;1.00;;;19.80;84.00;;;;;;5009030;28;20623;-56
2022/05/26 07:32:03;;;;;;;1.47;0.93;;;19.90;82.90;;;;;;5007403;28;20811;-56
2022/05/26 07:34:29;;;;;;;1.40;1.00;;;20.00;82.70;;;;;;5011822;28;20471;-56
2022/05/26 07:42:36;;;;;;;2.25;0.98;;;21.20;78.80;;;;;;5019670;28;20463;-56
2022/05/26 07:45:04;;;;;;;0.80;0.70;;;21.50;77.50;;;;;;5011082;28;20278;-56
2022/05/26 07:47:30;;;;;;;1.90;0.90;;;21.70;76.40;;;;;;5007797;28;20944;-57
2022/05/26 07:49:56;;;;;;;3.47;0.90;;;21.80;75.90;;;;;;5008399;28;20443;-56
2022/05/26 07:52:21;;;;;;;2.43;1.20;;;21.80;74.60;;;;;;5012440;28;20477;-56
2022/05/26 07:54:47;;;;;;;2.93;0.97;;;21.70;74.40;;;;;;5011949;28;20241;-54
2022/05/26 07:57:21;;;;;;;1.00;0.90;;;22.00;74.00;;;;;;5010396;28;20560;-56
2022/05/26 07:59:47;;;;;;;1.53;0.80;;;22.10;72.70;;;;;;5010846;28;20205;-56
2022/05/26 08:02:13;;;;;;;1.00;0.80;;;22.20;72.40;;;;;;5010357;28;20438;-56
2022/05/26 08:04:39;;;;;;;0.90;0.73;;;22.10;72.50;;;;;;5010037;28;20852;-56
2022/05/26 08:07:05;;;;;;;3.37;1.10;;;22.20;71.40;;;;;;5010851;28;20210;-56
2022/05/26 08:09:31;;;;;;;1.00;0.80;;;22.30;71.70;;;;;;5006535;28;20489;-56
2022/05/26 08:11:56;;;;;;;4.63;1.17;;;22.40;71.70;;;;;;5012309;28;20461;-56
2022/05/26 08:14:22;;;;;;;1.43;1.30;;;22.50;71.40;;;;;;5001666;28;20418;-56
2022/05/26 08:16:49;;;;;;;2.13;1.10;;;22.70;70.60;;;;;;5010240;28;20179;-57
2022/05/26 08:19:14;;;;;;;1.37;0.83;;;22.60;70.40;;;;;;5010785;28;20222;-57
2022/05/26 08:21:40;;;;;;;2.60;0.90;;;22.80;70.10;;;;;;5011088;28;20429;-56
2022/05/26 08:24:06;;;;;;;5.20;0.90;;;22.60;69.80;;;;;;5010238;28;20194;-56
2022/05/26 08:26:32;;;;;;;2.97;0.90;;;22.30;70.80;;;;;;5010216;28;20238;-55
2022/05/26 08:28:58;;;;;;;1.33;0.80;;;21.90;71.20;;;;;;5010243;28;20453;-55
2022/05/26 08:31:26;;;;;;;1.37;0.90;;;21.60;72.20;;;;;;5010025;28;20445;-55
2022/05/26 08:33:52;;;;;;;1.45;0.95;;;21.20;73.10;;;;;;5012071;28;20193;-55
2022/05/26 08:36:20;;;;;;;2.30;1.23;;;21.10;74.10;;;;;;5011816;28;20189;-55
2022/05/26 08:38:47;;;;;;;1.65;1.02;;;21.10;74.00;;;;;;5004813;28;20676;-55
2022/05/26 08:41:31;;;;;;;1.77;1.33;;;21.30;74.50;;;;;;5007898;28;20194;-55
2022/05/26 08:44:30;;;;;;;1.45;1.00;;;21.80;73.90;;;;;;5011434;28;20664;-55
2022/05/26 08:47:19;;;;;;;1.90;1.10;;;21.90;73.10;;;;;;5008191;28;20214;-56
2022/05/26 08:49:56;;;;;;;2.10;0.90;;;22.10;72.60;;;;;;5004441;28;20466;-56
2022/05/26 08:52:34;;;;;;;1.40;1.20;;;22.10;71.60;;;;;;5007220;28;20437;-55
2022/05/26 08:55:25;;;;;;;1.87;1.10;;;21.90;72.60;;;;;;5011024;28;20802;-56
2022/05/26 08:58:01;;;;;;;1.63;1.00;;;21.70;73.40;;;;;;5005602;28;20478;-55
2022/05/26 09:00:27;;;;;;;1.00;0.90;;;21.70;73.60;;;;;;5010341;28;20229;-55
2022/05/26 09:03:01;;;;;;;1.95;1.00;;;21.70;73.90;;;;;;5010346;28;20441;-55
2022/05/26 09:05:41;;;;;;;2.13;1.20;;;21.90;72.60;;;;;;5026461;28;20252;-56
2022/05/26 09:13:57;;;;;;;1.70;1.10;;;21.90;72.70;;;;;;5008110;28;20437;-55
2022/05/26 09:16:23;;;;;;;1.67;0.93;;;21.60;72.90;;;;;;5007862;28;20453;-55
2022/05/26 09:19:16;;;;;;;2.10;1.03;;;21.80;73.10;;;;;;5010166;28;20846;-56
2022/05/26 09:21:43;;;;;;;1.50;0.80;;;21.90;72.50;;;;;;5010179;28;20445;-55
2022/05/26 09:24:22;;;;;;;1.33;1.00;;;22.20;72.30;;;;;;5010332;28;20504;-55
2022/05/26 09:26:59;;;;;;;1.40;0.90;;;22.50;71.80;;;;;;5009609;28;20501;-56
2022/05/26 09:29:30;;;;;;;2.73;1.00;;;22.90;71.10;;;;;;5006123;28;20970;-55
2022/05/26 09:31:58;;;;;;;1.30;1.20;;;22.90;70.70;;;;;;5013718;28;20457;-56
2022/05/26 09:34:27;;;;;;;2.80;1.00;;;22.90;69.90;;;;;;5013175;28;20583;-55
2022/05/26 09:37:02;;;;;;;2.17;1.20;;;22.30;70.50;;;;;;5009944;28;20519;-55
2022/05/26 09:39:34;;;;;;;1.30;1.20;;;22.40;71.10;;;;;;5024813;28;20465;-56
2022/05/26 09:42:02;;;;;;;1.35;1.13;;;21.90;71.40;;;;;;5009820;28;20532;-56
2022/05/26 09:44:35;;;;;;;3.47;1.10;;;21.60;71.60;;;;;;5002613;28;20175;-55
2022/05/26 09:47:26;;;;;;;1.20;0.90;;;21.30;72.40;;;;;;5005787;28;20300;-56
2022/05/26 09:49:55;;;;;;;2.97;1.45;;;21.20;73.20;;;;;;5010344;28;20190;-56
2022/05/26 09:52:25;;;;;;;2.03;1.23;;;21.10;74.10;;;;;;5010126;28;20245;-55
2022/05/26 09:55:11;;;;;;;3.10;0.93;;;20.90;75.30;;;;;;5010124;28;20189;-56
2022/05/26 09:57:37;;;;;;;1.30;1.20;;;20.80;76.50;;;;;;5000578;28;20227;-56
2022/05/26 10:00:14;;;;;;;1.30;1.20;;;20.60;76.20;;;;;;5013270;28;20245;-55
2022/05/26 10:02:41;;;;;;;3.72;1.45;;;20.60;76.40;;;;;;5012003;28;20184;-56
2022/05/26 10:05:13;;;;;;;1.00;0.90;;;20.50;76.40;;;;;;5006964;28;20608;-56
2022/05/26 10:08:10;;;;;;;1.83;1.20;;;20.40;76.20;;;;;;5012949;28;20612;-56
2022/05/26 10:10:40;;;;;;;1.70;1.02;;;20.50;76.70;;;;;;5013078;28;20653;-57
2022/05/26 10:13:11;;;;;;;1.52;0.90;;;20.50;76.80;;;;;;5013780;28;20237;-57
2022/05/26 10:16:02;;;;;;;2.38;1.20;;;20.40;77.40;;;;;;5013005;28;20202;-56
2022/05/26 10:18:50;;;;;;;2.92;1.10;;;20.50;77.00;;;;;;5013134;28;20206;-56
2022/05/26 10:21:34;;;;;;;1.45;1.00;;;20.70;77.00;;;;;;4998876;28;20188;-57
2022/05/26 10:24:28;;;;;;;1.40;1.00;;;20.80;76.00;;;;;;5012981;28;20214;-57
2022/05/26 10:27:08;;;;;;;1.20;1.10;;;21.00;75.70;;;;;;5012451;28;20300;-56
2022/05/26 10:30:15;;;;;;;1.58;1.20;;;21.10;75.90;;;;;;5012542;28;20217;-57
2022/05/26 10:33:08;;;;;;;1.48;1.10;;;21.20;75.80;;;;;;5011936;28;20679;-57
2022/05/26 10:35:46;;;;;;;1.73;0.88;;;21.10;75.50;;;;;;5012620;28;20187;-56
2022/05/26 10:38:33;;;;;;;1.65;1.13;;;21.20;75.30;;;;;;5008565;28;20280;-57
2022/05/26 10:41:15;;;;;;;1.42;1.15;;;21.20;75.50;;;;;;5011451;28;20664;-57
2022/05/26 10:43:53;;;;;;;1.20;1.10;;;21.30;76.00;;;;;;5007953;28;20669;-56
2022/05/26 10:46:31;;;;;;;2.45;1.10;;;21.40;74.90;;;;;;5008346;28;20214;-57
2022/05/26 10:49:15;;;;;;;1.50;1.00;;;21.50;74.00;;;;;;4998919;28;20214;-57
2022/05/26 10:52:02;;;;;;;2.15;1.00;;;21.50;74.80;;;;;;5013086;28;20281;-57
2022/05/26 10:54:55;;;;;;;1.13;0.90;;;21.30;73.80;;;;;;5011984;28;20524;-57
2022/05/26 10:57:43;;;;;;;2.20;1.55;;;21.20;74.80;;;;;;5009353;28;20289;-55
2022/05/26 11:00:15;;;;;;;1.33;1.23;;;21.00;75.40;;;;;;5012030;28;20652;-55
2022/05/26 11:03:02;;;;;;;1.35;1.25;;;20.80;75.90;;;;;;5009984;28;20201;-55
2022/05/26 11:05:33;;;;;;;1.85;1.35;;;20.70;77.30;;;;;;5012940;28;20279;-55
2022/05/26 11:08:32;;;;;;;1.23;1.13;;;20.80;77.70;;;;;;5011336;28;20238;-55
2022/05/26 11:11:10;;;;;;;2.05;1.20;;;20.70;78.00;;;;;;5010851;28;20206;-56
2022/05/26 11:13:48;;;;;;;4.18;1.42;;;20.50;78.60;;;;;;5010186;28;20175;-56
2022/05/26 11:19:35;;;;;;;3.17;1.50;;;20.50;78.60;;;;;;5012698;28;20253;-56
2022/05/26 11:22:03;;;;;;;1.73;1.63;;;20.60;78.20;;;;;;5012113;28;20235;-56
2022/05/26 11:24:29;;;;;;;1.30;1.20;;;20.70;78.20;;;;;;5012081;28;20230;-56
2022/05/26 11:27:04;;;;;;;1.00;0.90;;;20.70;77.60;;;;;;5011824;28;20230;-56
2022/05/26 11:29:39;;;;;;;2.00;1.27;;;21.00;78.00;;;;;;5007646;28;20523;-56
2022/05/26 11:38:11;;;;;;;1.42;1.00;;;20.90;77.00;;;;;;5011459;28;20629;-56
2022/05/26 11:41:01;;;;;;;1.60;1.30;;;20.90;76.30;;;;;;5005898;28;20556;-55
2022/05/26 11:43:37;;;;;;;1.50;1.40;;;21.10;76.90;;;;;;5009513;28;20277;-56
2022/05/26 11:46:02;;;;;;;2.38;2.20;;;21.00;76.50;;;;;;5004626;28;20194;-56
2022/05/26 11:48:31;;;;;;;2.60;1.90;;;20.90;78.20;;;;;;5008640;28;20210;-56
2022/05/26 11:50:56;;;;;;;1.48;1.00;;;21.00;77.30;;;;;;5002283;28;20325;-57
2022/05/26 11:53:32;;;;;;;1.13;1.03;;;21.10;76.80;;;;;;5012126;28;20798;-57
2022/05/26 11:56:23;;;;;;;2.55;1.15;;;21.30;76.20;;;;;;5011639;28;20698;-57
2022/05/26 11:59:27;;;;;;;1.50;1.40;;;21.40;75.90;;;;;;5010795;28;20211;-54
2022/05/26 12:01:59;;;;;;;1.90;0.95;;;21.50;76.30;;;;;;5010442;28;20937;-55
2022/05/26 12:04:30;;;;;;;2.80;0.97;;;21.70;75.90;;;;;;5009195;28;20207;-55
2022/05/26 12:07:00;;;;;;;1.20;1.10;;;21.70;75.30;;;;;;5012005;28;20473;-55
2022/05/26 12:09:43;;;;;;;1.00;0.90;;;21.50;75.30;;;;;;5010030;28;21362;-56
2022/05/26 12:12:21;;;;;;;1.70;1.40;;;21.40;75.60;;;;;;5011930;28;20435;-55
2022/05/26 12:14:47;;;;;;;1.80;1.70;;;21.20;75.50;;;;;;5010141;28;20676;-55
2022/05/26 12:17:39;;;;;;;2.70;1.77;;;21.10;76.20;;;;;;5010738;28;20191;-57
2022/05/26 12:20:10;;;;;;;3.83;1.58;;;21.10;76.50;;;;;;5011462;28;20190;-56
2022/05/26 12:23:02;;;;;;;3.03;1.48;;;21.00;77.50;;;;;;5009071;28;20274;-56
2022/05/26 12:25:36;;;;;;;1.48;1.27;;;20.90;77.50;;;;;;5007112;28;20413;-57
2022/05/26 12:28:06;;;;;;;2.10;1.13;;;20.90;78.30;;;;;;5010245;28;20218;-57
2022/05/26 12:30:34;;;;;;;1.40;1.27;;;20.80;78.60;;;;;;5008982;28;20233;-56
2022/05/26 12:33:09;;;;;;;2.75;1.30;;;20.70;79.10;;;;;;5009200;28;20190;-56
2022/05/26 12:35:39;;;;;;;1.77;1.20;;;20.60;79.40;;;;;;5007923;28;20178;-62
2022/05/26 12:38:34;;;;;;;1.30;1.20;;;20.50;80.60;;;;;;5007082;28;20233;-56
2022/05/26 12:41:02;;;;;;;1.95;1.20;;;20.50;81.50;;;;;;5009599;28;20179;-58
2022/05/26 12:44:05;;;;;;;2.15;1.50;;;20.40;81.50;;;;;;5010423;28;20210;-66
2022/05/26 12:46:41;;;;;;;1.65;1.38;;;20.40;82.00;;;;;;5006527;28;20209;-57
2022/05/26 12:49:26;;;;;;;4.18;1.70;;;20.50;82.50;;;;;;5006372;28;20229;-59
2022/05/26 12:52:15;;;;;;;1.92;1.70;;;20.70;82.10;;;;;;5008680;28;20668;-60
2022/05/26 12:54:58;;;;;;;1.80;1.23;;;21.00;80.70;;;;;;5009903;28;20187;-61
2022/05/26 12:57:26;;;;;;;1.85;1.40;;;21.30;78.90;;;;;;5008764;28;20213;-60
2022/05/26 13:00:25;;;;;;;2.80;1.33;;;21.20;78.70;;;;;;5008207;28;20207;-61
2022/05/26 13:03:20;;;;;;;1.40;1.17;;;21.10;79.90;;;;;;5002160;28;20183;-60
2022/05/26 13:05:52;;;;;;;1.35;1.25;;;21.40;80.20;;;;;;5009871;28;21037;-61
2022/05/26 13:08:21;;;;;;;1.60;1.43;;;21.70;78.80;;;;;;5010239;28;20565;-60
2022/05/26 13:10:51;;;;;;;1.33;1.20;;;21.80;77.40;;;;;;5004182;28;20911;-60
2022/05/26 13:13:35;;;;;;;1.90;1.47;;;22.10;77.00;;;;;;5009455;28;20466;-59
2022/05/26 13:16:24;;;;;;;2.03;1.60;;;22.00;77.10;;;;;;5006995;28;20825;-63
2022/05/26 13:18:50;;;;;;;2.33;1.53;;;22.00;76.10;;;;;;5008439;28;20461;-63
2022/05/26 13:21:22;;;;;;;1.40;1.27;;;22.00;76.30;;;;;;5023665;28;20438;-62
2022/05/26 13:23:50;;;;;;;1.70;1.60;;;21.90;76.90;;;;;;5010256;28;20438;-60
2022/05/26 13:26:20;;;;;;;3.33;1.93;;;21.90;77.60;;;;;;5008656;28;20433;-59
2022/05/26 13:28:50;;;;;;;2.07;1.37;;;21.80;77.60;;;;;;5006028;28;20839;-59
2022/05/26 13:34:04;;;;;;;2.22;1.90;;;21.70;79.00;;;;;;5004376;28;20586;-64
2022/05/26 13:36:36;;;;;;;1.90;1.80;;;21.60;80.50;;;;;;5005649;28;20237;-63
2022/05/26 13:39:14;;;;;;;1.85;1.60;;;21.40;81.10;;;;;;5001700;28;20269;-64
2022/05/26 13:41:45;;;;;;;1.90;1.80;;;21.30;81.60;;;;;;5007301;28;20194;-68
2022/05/26 13:44:30;;;;;;;2.80;1.90;;;21.30;82.20;;;;;;5007902;28;20393;-68
2022/05/26 13:46:57;;;;;;;1.70;1.60;;;21.40;82.20;;;;;;5009139;28;20245;-60
2022/05/26 13:49:32;;;;;;;2.95;2.00;;;21.40;81.40;;;;;;5008937;28;20557;-61
2022/05/26 13:52:08;;;;;;;5.00;2.10;;;21.50;81.80;;;;;;5009299;28;20170;-59
2022/05/26 13:54:58;;;;;;;4.60;1.70;;;21.40;81.70;;;;;;5002615;28;20186;-57
2022/05/26 13:57:34;;;;;;;3.88;2.97;;;21.40;81.70;;;;;;5004478;28;20214;-62
2022/05/26 14:00:19;;;;;;;3.35;1.70;;;21.30;81.90;;;;;;5008475;28;20186;-58